sensor_id;sensor_type;location;lat;lon;timestamp;P1;durP1;ratioP1;P2;durP2;ratioP2
14139;SDS011;7150;53.514;9.988;2023-11-18T00:01:47;5.23;;;3.77;;
14139;SDS011;7150;53.514;9.988;2023-11-18T00:04:13;5.30;;;3.60;;
14139;SDS011;7150;53.514;9.988;2023-11-18T00:06:42;5.17;;;3.73;;
14139;SDS011;7150;53.514;9.988;2023-11-18T00:09:11;3.83;;;3.20;;
14139;SDS011;7150;53.514;9.988;2023-11-18T00:11:40;5.73;;;3.70;;
14139;SDS011;7150;53.514;9.988;2023-11-18T00:14:06;6.07;;;4.30;;
14139;SDS011;7150;53.514;9.988;2023-11-18T00:16:32;4.80;;;3.77;;
14139;SDS011;7150;53.514;9.988;2023-11-18T00:18:57;6.00;;;4.07;;
14139;SDS011;7150;53.514;9.988;2023-11-18T00:21:34;5.80;;;3.70;;
14139;SDS011;7150;53.514;9.988;2023-11-18T00:24:01;4.43;;;3.47;;
14139;SDS011;7150;53.514;9.988;2023-11-18T00:26:26;4.73;;;3.50;;
14139;SDS011;7150;53.514;9.988;2023-11-18T00:28:52;5.83;;;4.07;;
14139;SDS011;7150;53.514;9.988;2023-11-18T00:31:17;4.43;;;3.33;;
14139;SDS011;7150;53.514;9.988;2023-11-18T00:33:43;6.23;;;3.67;;
14139;SDS011;7150;53.514;9.988;2023-11-18T00:36:08;4.60;;;3.53;;
14139;SDS011;7150;53.514;9.988;2023-11-18T00:38:34;5.17;;;3.47;;
14139;SDS011;7150;53.514;9.988;2023-11-18T00:40:59;5.30;;;3.53;;
14139;SDS011;7150;53.514;9.988;2023-11-18T00:43:25;6.50;;;3.57;;
14139;SDS011;7150;53.514;9.988;2023-11-18T00:45:50;4.40;;;3.50;;
14139;SDS011;7150;53.514;9.988;2023-11-18T00:48:16;4.43;;;3.30;;
14139;SDS011;7150;53.514;9.988;2023-11-18T00:50:42;4.17;;;3.50;;
14139;SDS011;7150;53.514;9.988;2023-11-18T00:53:07;4.93;;;3.03;;
14139;SDS011;7150;53.514;9.988;2023-11-18T00:55:33;5.47;;;3.50;;
14139;SDS011;7150;53.514;9.988;2023-11-18T00:57:58;4.40;;;3.37;;
14139;SDS011;7150;53.514;9.988;2023-11-18T01:00:24;4.80;;;3.50;;
14139;SDS011;7150;53.514;9.988;2023-11-18T01:02:51;5.97;;;3.23;;
14139;SDS011;7150;53.514;9.988;2023-11-18T01:05:18;3.97;;;3.10;;
14139;SDS011;7150;53.514;9.988;2023-11-18T01:07:44;4.73;;;3.13;;
14139;SDS011;7150;53.514;9.988;2023-11-18T01:10:10;4.97;;;3.77;;
14139;SDS011;7150;53.514;9.988;2023-11-18T01:12:36;5.20;;;3.53;;
14139;SDS011;7150;53.514;9.988;2023-11-18T01:15:02;4.43;;;3.30;;
14139;SDS011;7150;53.514;9.988;2023-11-18T01:17:28;5.37;;;3.30;;
14139;SDS011;7150;53.514;9.988;2023-11-18T01:19:54;7.10;;;4.10;;
14139;SDS011;7150;53.514;9.988;2023-11-18T01:22:20;5.50;;;3.80;;
14139;SDS011;7150;53.514;9.988;2023-11-18T01:24:46;4.83;;;3.57;;
14139;SDS011;7150;53.514;9.988;2023-11-18T01:27:11;4.27;;;3.57;;
14139;SDS011;7150;53.514;9.988;2023-11-18T01:29:37;4.93;;;3.70;;
14139;SDS011;7150;53.514;9.988;2023-11-18T01:32:03;4.60;;;3.50;;
14139;SDS011;7150;53.514;9.988;2023-11-18T01:34:34;5.10;;;3.70;;
14139;SDS011;7150;53.514;9.988;2023-11-18T01:37:08;3.77;;;3.07;;
14139;SDS011;7150;53.514;9.988;2023-11-18T01:39:34;5.80;;;3.87;;
14139;SDS011;7150;53.514;9.988;2023-11-18T01:42:00;6.43;;;4.03;;
14139;SDS011;7150;53.514;9.988;2023-11-18T01:44:28;6.73;;;4.17;;
14139;SDS011;7150;53.514;9.988;2023-11-18T01:46:57;6.60;;;3.40;;
14139;SDS011;7150;53.514;9.988;2023-11-18T01:49:23;4.20;;;3.17;;
14139;SDS011;7150;53.514;9.988;2023-11-18T01:51:52;5.47;;;3.37;;
14139;SDS011;7150;53.514;9.988;2023-11-18T01:54:18;5.43;;;3.40;;
14139;SDS011;7150;53.514;9.988;2023-11-18T01:56:45;4.20;;;3.20;;
14139;SDS011;7150;53.514;9.988;2023-11-18T01:59:12;4.87;;;3.47;;
14139;SDS011;7150;53.514;9.988;2023-11-18T02:04:14;5.20;;;3.70;;
14139;SDS011;7150;53.514;9.988;2023-11-18T02:06:42;7.23;;;3.40;;
14139;SDS011;7150;53.514;9.988;2023-11-18T02:09:09;4.90;;;3.43;;
14139;SDS011;7150;53.514;9.988;2023-11-18T02:11:36;5.50;;;3.53;;
14139;SDS011;7150;53.514;9.988;2023-11-18T02:14:06;5.40;;;3.67;;
14139;SDS011;7150;53.514;9.988;2023-11-18T02:16:35;6.20;;;3.63;;
14139;SDS011;7150;53.514;9.988;2023-11-18T02:19:03;4.73;;;3.90;;
14139;SDS011;7150;53.514;9.988;2023-11-18T02:21:34;4.77;;;3.63;;
14139;SDS011;7150;53.514;9.988;2023-11-18T02:24:01;4.13;;;3.67;;
14139;SDS011;7150;53.514;9.988;2023-11-18T02:26:26;7.27;;;3.90;;
14139;SDS011;7150;53.514;9.988;2023-11-18T02:28:52;6.90;;;3.70;;
14139;SDS011;7150;53.514;9.988;2023-11-18T02:31:30;5.10;;;3.53;;
14139;SDS011;7150;53.514;9.988;2023-11-18T02:34:05;6.43;;;3.93;;
14139;SDS011;7150;53.514;9.988;2023-11-18T02:36:41;5.13;;;3.97;;
14139;SDS011;7150;53.514;9.988;2023-11-18T02:39:12;7.67;;;4.37;;
14139;SDS011;7150;53.514;9.988;2023-11-18T02:41:46;7.43;;;3.77;;
14139;SDS011;7150;53.514;9.988;2023-11-18T02:44:16;6.60;;;4.17;;
14139;SDS011;7150;53.514;9.988;2023-11-18T02:46:43;5.97;;;4.07;;
14139;SDS011;7150;53.514;9.988;2023-11-18T02:49:09;5.97;;;4.40;;
14139;SDS011;7150;53.514;9.988;2023-11-18T02:51:35;4.77;;;3.53;;
14139;SDS011;7150;53.514;9.988;2023-11-18T02:54:04;6.37;;;3.90;;
14139;SDS011;7150;53.514;9.988;2023-11-18T02:56:36;5.57;;;3.70;;
14139;SDS011;7150;53.514;9.988;2023-11-18T02:59:02;5.70;;;3.73;;
14139;SDS011;7150;53.514;9.988;2023-11-18T03:01:30;4.90;;;3.67;;
14139;SDS011;7150;53.514;9.988;2023-11-18T03:03:56;5.03;;;3.90;;
14139;SDS011;7150;53.514;9.988;2023-11-18T03:06:22;5.93;;;4.00;;
14139;SDS011;7150;53.514;9.988;2023-11-18T03:08:47;6.33;;;4.40;;
14139;SDS011;7150;53.514;9.988;2023-11-18T03:11:13;6.33;;;4.20;;
14139;SDS011;7150;53.514;9.988;2023-11-18T03:13:38;5.83;;;4.10;;
14139;SDS011;7150;53.514;9.988;2023-11-18T03:16:07;5.07;;;3.70;;
14139;SDS011;7150;53.514;9.988;2023-11-18T03:18:38;5.70;;;4.00;;
14139;SDS011;7150;53.514;9.988;2023-11-18T03:21:05;5.17;;;4.17;;
14139;SDS011;7150;53.514;9.988;2023-11-18T03:23:37;5.37;;;3.70;;
14139;SDS011;7150;53.514;9.988;2023-11-18T03:26:03;5.40;;;3.87;;
14139;SDS011;7150;53.514;9.988;2023-11-18T03:28:28;7.27;;;4.00;;
14139;SDS011;7150;53.514;9.988;2023-11-18T03:30:54;5.67;;;4.17;;
14139;SDS011;7150;53.514;9.988;2023-11-18T03:33:19;6.30;;;3.77;;
14139;SDS011;7150;53.514;9.988;2023-11-18T03:35:45;5.47;;;4.30;;
14139;SDS011;7150;53.514;9.988;2023-11-18T03:38:10;5.80;;;3.93;;
14139;SDS011;7150;53.514;9.988;2023-11-18T03:40:36;5.00;;;3.87;;
14139;SDS011;7150;53.514;9.988;2023-11-18T03:43:01;7.50;;;4.30;;
14139;SDS011;7150;53.514;9.988;2023-11-18T03:45:28;5.57;;;4.53;;
14139;SDS011;7150;53.514;9.988;2023-11-18T03:47:53;5.50;;;4.43;;
14139;SDS011;7150;53.514;9.988;2023-11-18T03:50:19;5.67;;;4.40;;
14139;SDS011;7150;53.514;9.988;2023-11-18T03:52:44;5.53;;;4.50;;
14139;SDS011;7150;53.514;9.988;2023-11-18T03:55:09;6.50;;;4.33;;
14139;SDS011;7150;53.514;9.988;2023-11-18T03:57:35;6.20;;;4.23;;
14139;SDS011;7150;53.514;9.988;2023-11-18T04:00:01;6.57;;;4.50;;
14139;SDS011;7150;53.514;9.988;2023-11-18T04:02:27;6.87;;;4.50;;
14139;SDS011;7150;53.514;9.988;2023-11-18T04:04:54;4.90;;;4.10;;
14139;SDS011;7150;53.514;9.988;2023-11-18T04:07:19;6.03;;;4.40;;
14139;SDS011;7150;53.514;9.988;2023-11-18T04:09:45;5.37;;;3.97;;
14139;SDS011;7150;53.514;9.988;2023-11-18T04:12:10;6.83;;;4.70;;
14139;SDS011;7150;53.514;9.988;2023-11-18T04:14:36;6.07;;;4.43;;
14139;SDS011;7150;53.514;9.988;2023-11-18T04:17:03;5.47;;;4.17;;
14139;SDS011;7150;53.514;9.988;2023-11-18T04:19:28;7.33;;;4.37;;
14139;SDS011;7150;53.514;9.988;2023-11-18T04:21:54;6.60;;;4.50;;
14139;SDS011;7150;53.514;9.988;2023-11-18T04:24:19;6.13;;;4.33;;
14139;SDS011;7150;53.514;9.988;2023-11-18T04:26:45;5.20;;;4.07;;
14139;SDS011;7150;53.514;9.988;2023-11-18T04:29:12;5.60;;;4.30;;
14139;SDS011;7150;53.514;9.988;2023-11-18T04:31:38;5.63;;;4.17;;
14139;SDS011;7150;53.514;9.988;2023-11-18T04:34:04;6.20;;;4.63;;
14139;SDS011;7150;53.514;9.988;2023-11-18T04:36:30;6.77;;;4.90;;
14139;SDS011;7150;53.514;9.988;2023-11-18T04:38:56;5.20;;;4.17;;
14139;SDS011;7150;53.514;9.988;2023-11-18T04:41:22;7.83;;;4.60;;
14139;SDS011;7150;53.514;9.988;2023-11-18T04:43:48;6.23;;;4.73;;
14139;SDS011;7150;53.514;9.988;2023-11-18T04:46:13;6.77;;;4.43;;
14139;SDS011;7150;53.514;9.988;2023-11-18T04:48:39;5.33;;;4.50;;
14139;SDS011;7150;53.514;9.988;2023-11-18T04:51:04;6.37;;;4.57;;
14139;SDS011;7150;53.514;9.988;2023-11-18T04:53:30;6.53;;;4.37;;
14139;SDS011;7150;53.514;9.988;2023-11-18T04:55:56;6.53;;;4.57;;
14139;SDS011;7150;53.514;9.988;2023-11-18T04:58:23;6.33;;;4.67;;
14139;SDS011;7150;53.514;9.988;2023-11-18T05:00:49;7.07;;;4.50;;
14139;SDS011;7150;53.514;9.988;2023-11-18T05:03:15;7.27;;;4.67;;
14139;SDS011;7150;53.514;9.988;2023-11-18T05:05:41;6.63;;;4.87;;
14139;SDS011;7150;53.514;9.988;2023-11-18T05:08:07;6.30;;;4.37;;
14139;SDS011;7150;53.514;9.988;2023-11-18T05:10:45;7.23;;;4.87;;
14139;SDS011;7150;53.514;9.988;2023-11-18T05:13:14;6.40;;;4.60;;
14139;SDS011;7150;53.514;9.988;2023-11-18T05:15:42;6.73;;;4.60;;
14139;SDS011;7150;53.514;9.988;2023-11-18T05:18:10;6.20;;;4.77;;
14139;SDS011;7150;53.514;9.988;2023-11-18T05:20:38;8.33;;;4.43;;
14139;SDS011;7150;53.514;9.988;2023-11-18T05:23:04;7.90;;;4.93;;
14139;SDS011;7150;53.514;9.988;2023-11-18T05:25:30;5.80;;;4.33;;
14139;SDS011;7150;53.514;9.988;2023-11-18T05:27:58;6.93;;;5.17;;
14139;SDS011;7150;53.514;9.988;2023-11-18T05:30:24;6.23;;;4.33;;
14139;SDS011;7150;53.514;9.988;2023-11-18T05:32:50;5.70;;;4.27;;
14139;SDS011;7150;53.514;9.988;2023-11-18T05:35:16;6.40;;;4.20;;
14139;SDS011;7150;53.514;9.988;2023-11-18T05:37:42;6.47;;;4.20;;
14139;SDS011;7150;53.514;9.988;2023-11-18T05:40:08;6.00;;;4.63;;
14139;SDS011;7150;53.514;9.988;2023-11-18T05:42:36;7.50;;;4.70;;
14139;SDS011;7150;53.514;9.988;2023-11-18T05:45:05;6.73;;;4.60;;
14139;SDS011;7150;53.514;9.988;2023-11-18T05:47:32;7.97;;;5.33;;
14139;SDS011;7150;53.514;9.988;2023-11-18T05:50:01;7.87;;;5.07;;
14139;SDS011;7150;53.514;9.988;2023-11-18T05:52:30;6.50;;;4.90;;
14139;SDS011;7150;53.514;9.988;2023-11-18T05:54:55;6.60;;;4.60;;
14139;SDS011;7150;53.514;9.988;2023-11-18T05:57:21;5.87;;;4.17;;
14139;SDS011;7150;53.514;9.988;2023-11-18T05:59:46;6.97;;;4.67;;
14139;SDS011;7150;53.514;9.988;2023-11-18T06:02:13;6.70;;;4.57;;
14139;SDS011;7150;53.514;9.988;2023-11-18T06:04:43;7.33;;;4.70;;
14139;SDS011;7150;53.514;9.988;2023-11-18T06:07:09;5.63;;;4.40;;
14139;SDS011;7150;53.514;9.988;2023-11-18T06:09:34;5.73;;;4.20;;
14139;SDS011;7150;53.514;9.988;2023-11-18T06:12:00;6.97;;;4.70;;
14139;SDS011;7150;53.514;9.988;2023-11-18T06:14:25;7.80;;;5.30;;
14139;SDS011;7150;53.514;9.988;2023-11-18T06:16:51;6.80;;;4.60;;
14139;SDS011;7150;53.514;9.988;2023-11-18T06:19:17;8.40;;;4.53;;
14139;SDS011;7150;53.514;9.988;2023-11-18T06:21:42;6.87;;;4.63;;
14139;SDS011;7150;53.514;9.988;2023-11-18T06:24:08;6.80;;;4.57;;
14139;SDS011;7150;53.514;9.988;2023-11-18T06:26:36;6.77;;;4.27;;
14139;SDS011;7150;53.514;9.988;2023-11-18T06:29:02;5.83;;;4.23;;
14139;SDS011;7150;53.514;9.988;2023-11-18T06:31:29;6.80;;;4.37;;
14139;SDS011;7150;53.514;9.988;2023-11-18T06:33:54;6.20;;;4.40;;
14139;SDS011;7150;53.514;9.988;2023-11-18T06:36:20;7.70;;;4.70;;
14139;SDS011;7150;53.514;9.988;2023-11-18T06:38:46;8.07;;;5.37;;
14139;SDS011;7150;53.514;9.988;2023-11-18T06:41:17;7.23;;;5.17;;
14139;SDS011;7150;53.514;9.988;2023-11-18T06:43:47;7.17;;;4.87;;
14139;SDS011;7150;53.514;9.988;2023-11-18T06:46:19;8.50;;;5.37;;
14139;SDS011;7150;53.514;9.988;2023-11-18T06:48:46;7.23;;;5.60;;
14139;SDS011;7150;53.514;9.988;2023-11-18T06:51:19;9.57;;;4.77;;
14139;SDS011;7150;53.514;9.988;2023-11-18T06:53:50;7.10;;;4.80;;
14139;SDS011;7150;53.514;9.988;2023-11-18T06:56:17;8.20;;;5.20;;
14139;SDS011;7150;53.514;9.988;2023-11-18T06:58:42;6.90;;;4.80;;
14139;SDS011;7150;53.514;9.988;2023-11-18T07:01:09;6.87;;;4.80;;
14139;SDS011;7150;53.514;9.988;2023-11-18T07:03:37;6.97;;;5.13;;
14139;SDS011;7150;53.514;9.988;2023-11-18T07:06:03;7.17;;;5.00;;
14139;SDS011;7150;53.514;9.988;2023-11-18T07:08:30;7.23;;;5.33;;
14139;SDS011;7150;53.514;9.988;2023-11-18T07:10:56;7.70;;;5.57;;
14139;SDS011;7150;53.514;9.988;2023-11-18T07:13:22;8.53;;;5.57;;
14139;SDS011;7150;53.514;9.988;2023-11-18T07:15:48;8.97;;;5.33;;
14139;SDS011;7150;53.514;9.988;2023-11-18T07:18:14;9.67;;;5.67;;
14139;SDS011;7150;53.514;9.988;2023-11-18T07:20:40;9.07;;;5.33;;
14139;SDS011;7150;53.514;9.988;2023-11-18T07:23:05;9.83;;;5.70;;
14139;SDS011;7150;53.514;9.988;2023-11-18T07:25:36;7.53;;;5.20;;
14139;SDS011;7150;53.514;9.988;2023-11-18T07:28:02;7.63;;;4.97;;
14139;SDS011;7150;53.514;9.988;2023-11-18T07:30:30;7.50;;;4.97;;
14139;SDS011;7150;53.514;9.988;2023-11-18T07:32:56;7.90;;;5.37;;
14139;SDS011;7150;53.514;9.988;2023-11-18T07:35:25;7.97;;;4.90;;
14139;SDS011;7150;53.514;9.988;2023-11-18T07:37:52;9.27;;;5.10;;
14139;SDS011;7150;53.514;9.988;2023-11-18T07:40:18;7.17;;;4.93;;
14139;SDS011;7150;53.514;9.988;2023-11-18T07:42:53;7.93;;;5.23;;
14139;SDS011;7150;53.514;9.988;2023-11-18T07:45:21;8.73;;;5.67;;
14139;SDS011;7150;53.514;9.988;2023-11-18T07:47:48;7.23;;;5.23;;
14139;SDS011;7150;53.514;9.988;2023-11-18T07:50:16;9.87;;;6.00;;
14139;SDS011;7150;53.514;9.988;2023-11-18T07:52:42;6.90;;;4.70;;
14139;SDS011;7150;53.514;9.988;2023-11-18T07:55:08;9.60;;;5.40;;
14139;SDS011;7150;53.514;9.988;2023-11-18T07:57:38;8.57;;;5.27;;
14139;SDS011;7150;53.514;9.988;2023-11-18T08:00:04;7.70;;;4.70;;
14139;SDS011;7150;53.514;9.988;2023-11-18T08:02:34;6.30;;;4.80;;
14139;SDS011;7150;53.514;9.988;2023-11-18T08:05:01;8.13;;;5.63;;
14139;SDS011;7150;53.514;9.988;2023-11-18T08:07:33;7.80;;;5.60;;
14139;SDS011;7150;53.514;9.988;2023-11-18T08:10:00;8.63;;;5.50;;
14139;SDS011;7150;53.514;9.988;2023-11-18T08:12:29;7.97;;;5.37;;
14139;SDS011;7150;53.514;9.988;2023-11-18T08:14:55;9.27;;;5.63;;
14139;SDS011;7150;53.514;9.988;2023-11-18T08:17:20;8.13;;;5.47;;
14139;SDS011;7150;53.514;9.988;2023-11-18T08:19:46;8.97;;;5.43;;
14139;SDS011;7150;53.514;9.988;2023-11-18T08:22:11;7.20;;;5.13;;
14139;SDS011;7150;53.514;9.988;2023-11-18T08:24:38;6.63;;;4.50;;
14139;SDS011;7150;53.514;9.988;2023-11-18T08:27:04;7.60;;;5.23;;
14139;SDS011;7150;53.514;9.988;2023-11-18T08:29:32;10.13;;;5.57;;
14139;SDS011;7150;53.514;9.988;2023-11-18T08:31:58;8.00;;;5.27;;
14139;SDS011;7150;53.514;9.988;2023-11-18T08:34:23;7.33;;;4.77;;
14139;SDS011;7150;53.514;9.988;2023-11-18T08:36:50;8.43;;;5.23;;
14139;SDS011;7150;53.514;9.988;2023-11-18T08:39:16;6.43;;;4.80;;
14139;SDS011;7150;53.514;9.988;2023-11-18T08:41:45;8.23;;;5.07;;
14139;SDS011;7150;53.514;9.988;2023-11-18T08:44:11;7.67;;;4.87;;
14139;SDS011;7150;53.514;9.988;2023-11-18T08:46:38;8.10;;;5.50;;
14139;SDS011;7150;53.514;9.988;2023-11-18T08:49:04;7.30;;;5.13;;
14139;SDS011;7150;53.514;9.988;2023-11-18T08:51:36;8.50;;;5.43;;
14139;SDS011;7150;53.514;9.988;2023-11-18T08:54:03;6.83;;;4.87;;
14139;SDS011;7150;53.514;9.988;2023-11-18T08:56:47;8.00;;;4.87;;
14139;SDS011;7150;53.514;9.988;2023-11-18T08:59:19;6.70;;;4.57;;
14139;SDS011;7150;53.514;9.988;2023-11-18T09:01:52;7.17;;;5.00;;
14139;SDS011;7150;53.514;9.988;2023-11-18T09:04:21;7.97;;;5.40;;
14139;SDS011;7150;53.514;9.988;2023-11-18T09:06:50;6.73;;;4.93;;
14139;SDS011;7150;53.514;9.988;2023-11-18T09:09:19;7.30;;;4.20;;
14139;SDS011;7150;53.514;9.988;2023-11-18T09:11:54;7.27;;;4.87;;
14139;SDS011;7150;53.514;9.988;2023-11-18T09:14:21;7.03;;;5.20;;
14139;SDS011;7150;53.514;9.988;2023-11-18T09:16:53;8.30;;;4.60;;
14139;SDS011;7150;53.514;9.988;2023-11-18T09:19:24;7.00;;;4.77;;
14139;SDS011;7150;53.514;9.988;2023-11-18T09:21:52;6.87;;;4.57;;
14139;SDS011;7150;53.514;9.988;2023-11-18T09:24:19;6.33;;;4.50;;
14139;SDS011;7150;53.514;9.988;2023-11-18T09:26:45;5.53;;;4.03;;
14139;SDS011;7150;53.514;9.988;2023-11-18T09:29:15;5.13;;;3.60;;
14139;SDS011;7150;53.514;9.988;2023-11-18T09:31:47;6.57;;;4.50;;
14139;SDS011;7150;53.514;9.988;2023-11-18T09:34:17;6.20;;;4.13;;
14139;SDS011;7150;53.514;9.988;2023-11-18T09:36:51;6.10;;;4.13;;
14139;SDS011;7150;53.514;9.988;2023-11-18T09:39:17;5.93;;;4.60;;
14139;SDS011;7150;53.514;9.988;2023-11-18T09:41:57;6.87;;;4.90;;
14139;SDS011;7150;53.514;9.988;2023-11-18T09:44:23;6.67;;;4.43;;
14139;SDS011;7150;53.514;9.988;2023-11-18T09:46:53;6.93;;;4.20;;
14139;SDS011;7150;53.514;9.988;2023-11-18T09:49:29;8.27;;;4.50;;
14139;SDS011;7150;53.514;9.988;2023-11-18T09:52:04;6.87;;;4.97;;
14139;SDS011;7150;53.514;9.988;2023-11-18T09:54:42;6.77;;;4.43;;
14139;SDS011;7150;53.514;9.988;2023-11-18T09:57:39;8.27;;;4.77;;
14139;SDS011;7150;53.514;9.988;2023-11-18T10:00:09;7.00;;;4.60;;
14139;SDS011;7150;53.514;9.988;2023-11-18T10:02:51;6.77;;;4.67;;
14139;SDS011;7150;53.514;9.988;2023-11-18T10:05:18;6.60;;;5.03;;
14139;SDS011;7150;53.514;9.988;2023-11-18T10:07:48;5.90;;;4.30;;
14139;SDS011;7150;53.514;9.988;2023-11-18T10:10:15;7.30;;;4.53;;
14139;SDS011;7150;53.514;9.988;2023-11-18T10:12:44;5.17;;;4.07;;
14139;SDS011;7150;53.514;9.988;2023-11-18T10:15:13;6.63;;;4.70;;
14139;SDS011;7150;53.514;9.988;2023-11-18T10:17:43;6.60;;;4.47;;
14139;SDS011;7150;53.514;9.988;2023-11-18T10:23:09;5.97;;;3.90;;
14139;SDS011;7150;53.514;9.988;2023-11-18T10:25:45;5.07;;;3.93;;
14139;SDS011;7150;53.514;9.988;2023-11-18T10:31:05;4.30;;;3.27;;
14139;SDS011;7150;53.514;9.988;2023-11-18T10:33:32;5.90;;;3.77;;
14139;SDS011;7150;53.514;9.988;2023-11-18T10:36:16;5.20;;;3.57;;
14139;SDS011;7150;53.514;9.988;2023-11-18T10:38:47;4.87;;;3.50;;
14139;SDS011;7150;53.514;9.988;2023-11-18T10:41:14;5.70;;;4.17;;
14139;SDS011;7150;53.514;9.988;2023-11-18T10:43:41;5.47;;;3.83;;
14139;SDS011;7150;53.514;9.988;2023-11-18T10:46:10;7.90;;;3.67;;
14139;SDS011;7150;53.514;9.988;2023-11-18T10:51:10;5.33;;;3.30;;
14139;SDS011;7150;53.514;9.988;2023-11-18T10:53:37;4.37;;;3.00;;
14139;SDS011;7150;53.514;9.988;2023-11-18T10:56:05;5.00;;;3.63;;
14139;SDS011;7150;53.514;9.988;2023-11-18T10:58:37;5.03;;;3.13;;
14139;SDS011;7150;53.514;9.988;2023-11-18T11:01:06;3.67;;;2.87;;
14139;SDS011;7150;53.514;9.988;2023-11-18T11:03:46;5.40;;;3.30;;
14139;SDS011;7150;53.514;9.988;2023-11-18T11:06:23;5.20;;;3.33;;
14139;SDS011;7150;53.514;9.988;2023-11-18T11:08:50;4.30;;;3.27;;
14139;SDS011;7150;53.514;9.988;2023-11-18T11:11:18;3.97;;;2.90;;
14139;SDS011;7150;53.514;9.988;2023-11-18T11:13:46;5.27;;;3.50;;
14139;SDS011;7150;53.514;9.988;2023-11-18T11:16:20;3.27;;;2.67;;
14139;SDS011;7150;53.514;9.988;2023-11-18T11:18:52;3.73;;;3.10;;
14139;SDS011;7150;53.514;9.988;2023-11-18T11:21:20;4.93;;;3.00;;
14139;SDS011;7150;53.514;9.988;2023-11-18T11:23:53;5.20;;;3.73;;
14139;SDS011;7150;53.514;9.988;2023-11-18T11:26:38;4.63;;;3.23;;
14139;SDS011;7150;53.514;9.988;2023-11-18T11:35:06;4.30;;;3.03;;
14139;SDS011;7150;53.514;9.988;2023-11-18T11:37:43;4.20;;;3.10;;
14139;SDS011;7150;53.514;9.988;2023-11-18T11:40:10;4.97;;;3.57;;
14139;SDS011;7150;53.514;9.988;2023-11-18T11:42:37;4.27;;;2.93;;
14139;SDS011;7150;53.514;9.988;2023-11-18T11:45:07;5.33;;;3.47;;
14139;SDS011;7150;53.514;9.988;2023-11-18T11:47:44;4.30;;;3.30;;
14139;SDS011;7150;53.514;9.988;2023-11-18T11:50:22;6.07;;;4.13;;
14139;SDS011;7150;53.514;9.988;2023-11-18T11:52:59;5.37;;;3.43;;
14139;SDS011;7150;53.514;9.988;2023-11-18T11:55:40;7.90;;;3.47;;
14139;SDS011;7150;53.514;9.988;2023-11-18T11:58:26;3.67;;;3.10;;
14139;SDS011;7150;53.514;9.988;2023-11-18T12:00:53;5.13;;;3.13;;
14139;SDS011;7150;53.514;9.988;2023-11-18T12:03:21;5.23;;;3.23;;
14139;SDS011;7150;53.514;9.988;2023-11-18T12:05:47;6.23;;;3.33;;
14139;SDS011;7150;53.514;9.988;2023-11-18T12:08:14;4.40;;;2.97;;
14139;SDS011;7150;53.514;9.988;2023-11-18T12:10:41;5.13;;;3.10;;
14139;SDS011;7150;53.514;9.988;2023-11-18T12:13:17;3.37;;;2.70;;
14139;SDS011;7150;53.514;9.988;2023-11-18T12:15:51;4.67;;;2.70;;
14139;SDS011;7150;53.514;9.988;2023-11-18T12:18:28;3.40;;;2.70;;
14139;SDS011;7150;53.514;9.988;2023-11-18T12:20:56;4.60;;;2.83;;
14139;SDS011;7150;53.514;9.988;2023-11-18T12:23:26;3.97;;;2.37;;
14139;SDS011;7150;53.514;9.988;2023-11-18T12:25:56;3.00;;;2.40;;
14139;SDS011;7150;53.514;9.988;2023-11-18T12:28:26;2.93;;;2.27;;
14139;SDS011;7150;53.514;9.988;2023-11-18T12:30:55;3.00;;;2.10;;
14139;SDS011;7150;53.514;9.988;2023-11-18T12:33:22;3.17;;;2.20;;
14139;SDS011;7150;53.514;9.988;2023-11-18T12:38:26;9.50;;;3.17;;
14139;SDS011;7150;53.514;9.988;2023-11-18T12:41:25;2.50;;;1.97;;
14139;SDS011;7150;53.514;9.988;2023-11-18T12:47:00;2.73;;;2.03;;
14139;SDS011;7150;53.514;9.988;2023-11-18T12:49:55;2.63;;;2.03;;
14139;SDS011;7150;53.514;9.988;2023-11-18T12:52:21;2.97;;;2.40;;
14139;SDS011;7150;53.514;9.988;2023-11-18T12:54:48;2.73;;;2.03;;
14139;SDS011;7150;53.514;9.988;2023-11-18T12:57:21;3.03;;;2.27;;
14139;SDS011;7150;53.514;9.988;2023-11-18T12:59:48;3.30;;;2.40;;
14139;SDS011;7150;53.514;9.988;2023-11-18T13:02:15;2.13;;;1.83;;
14139;SDS011;7150;53.514;9.988;2023-11-18T13:04:48;2.43;;;2.00;;
14139;SDS011;7150;53.514;9.988;2023-11-18T13:07:15;3.90;;;2.20;;
14139;SDS011;7150;53.514;9.988;2023-11-18T13:09:42;2.63;;;2.07;;
14139;SDS011;7150;53.514;9.988;2023-11-18T13:12:10;2.73;;;2.03;;
14139;SDS011;7150;53.514;9.988;2023-11-18T13:14:40;2.63;;;2.00;;
14139;SDS011;7150;53.514;9.988;2023-11-18T13:17:11;2.20;;;2.00;;
14139;SDS011;7150;53.514;9.988;2023-11-18T13:19:38;2.63;;;2.10;;
14139;SDS011;7150;53.514;9.988;2023-11-18T13:22:08;2.87;;;2.20;;
14139;SDS011;7150;53.514;9.988;2023-11-18T13:24:35;2.77;;;2.03;;
14139;SDS011;7150;53.514;9.988;2023-11-18T13:27:02;2.30;;;1.83;;
14139;SDS011;7150;53.514;9.988;2023-11-18T13:29:31;2.27;;;1.90;;
14139;SDS011;7150;53.514;9.988;2023-11-18T13:31:59;3.10;;;1.93;;
14139;SDS011;7150;53.514;9.988;2023-11-18T13:34:28;3.10;;;1.87;;
14139;SDS011;7150;53.514;9.988;2023-11-18T13:36:57;2.73;;;2.40;;
14139;SDS011;7150;53.514;9.988;2023-11-18T13:39:23;3.13;;;2.23;;
14139;SDS011;7150;53.514;9.988;2023-11-18T13:41:51;2.93;;;2.33;;
14139;SDS011;7150;53.514;9.988;2023-11-18T13:44:36;3.10;;;2.13;;
14139;SDS011;7150;53.514;9.988;2023-11-18T13:47:09;4.43;;;1.90;;
14139;SDS011;7150;53.514;9.988;2023-11-18T13:49:39;2.60;;;2.17;;
14139;SDS011;7150;53.514;9.988;2023-11-18T13:52:07;2.87;;;2.40;;
14139;SDS011;7150;53.514;9.988;2023-11-18T13:54:36;2.90;;;2.10;;
14139;SDS011;7150;53.514;9.988;2023-11-18T13:57:02;2.70;;;2.33;;
14139;SDS011;7150;53.514;9.988;2023-11-18T13:59:28;3.27;;;2.00;;
14139;SDS011;7150;53.514;9.988;2023-11-18T14:01:54;3.10;;;2.30;;
14139;SDS011;7150;53.514;9.988;2023-11-18T14:04:24;2.33;;;2.00;;
14139;SDS011;7150;53.514;9.988;2023-11-18T14:06:52;3.13;;;2.07;;
14139;SDS011;7150;53.514;9.988;2023-11-18T14:09:30;3.47;;;2.30;;
14139;SDS011;7150;53.514;9.988;2023-11-18T14:12:01;4.30;;;2.40;;
14139;SDS011;7150;53.514;9.988;2023-11-18T14:14:27;3.10;;;2.30;;
14139;SDS011;7150;53.514;9.988;2023-11-18T14:16:53;3.33;;;2.43;;
14139;SDS011;7150;53.514;9.988;2023-11-18T14:19:22;4.40;;;2.70;;
14139;SDS011;7150;53.514;9.988;2023-11-18T14:21:51;4.83;;;2.93;;
14139;SDS011;7150;53.514;9.988;2023-11-18T14:24:17;4.10;;;3.10;;
14139;SDS011;7150;53.514;9.988;2023-11-18T14:26:43;2.93;;;2.33;;
14139;SDS011;7150;53.514;9.988;2023-11-18T14:29:11;5.00;;;2.90;;
14139;SDS011;7150;53.514;9.988;2023-11-18T14:31:37;4.23;;;3.03;;
14139;SDS011;7150;53.514;9.988;2023-11-18T14:34:03;4.37;;;3.10;;
14139;SDS011;7150;53.514;9.988;2023-11-18T14:36:29;4.33;;;3.17;;
14139;SDS011;7150;53.514;9.988;2023-11-18T14:38:55;3.50;;;2.93;;
14139;SDS011;7150;53.514;9.988;2023-11-18T14:41:21;4.90;;;2.87;;
14139;SDS011;7150;53.514;9.988;2023-11-18T14:43:51;4.10;;;3.00;;
14139;SDS011;7150;53.514;9.988;2023-11-18T14:46:19;5.27;;;3.00;;
14139;SDS011;7150;53.514;9.988;2023-11-18T14:48:45;4.87;;;3.10;;
14139;SDS011;7150;53.514;9.988;2023-11-18T14:51:11;5.20;;;2.93;;
14139;SDS011;7150;53.514;9.988;2023-11-18T14:53:37;4.87;;;3.00;;
14139;SDS011;7150;53.514;9.988;2023-11-18T14:56:03;4.50;;;3.10;;
14139;SDS011;7150;53.514;9.988;2023-11-18T14:58:30;4.90;;;3.50;;
14139;SDS011;7150;53.514;9.988;2023-11-18T15:00:57;5.60;;;3.33;;
14139;SDS011;7150;53.514;9.988;2023-11-18T15:03:24;5.67;;;3.73;;
14139;SDS011;7150;53.514;9.988;2023-11-18T15:05:50;5.10;;;3.80;;
14139;SDS011;7150;53.514;9.988;2023-11-18T15:08:15;5.43;;;4.23;;
14139;SDS011;7150;53.514;9.988;2023-11-18T15:10:41;6.23;;;3.90;;
14139;SDS011;7150;53.514;9.988;2023-11-18T15:13:07;4.80;;;3.50;;
14139;SDS011;7150;53.514;9.988;2023-11-18T15:15:38;6.13;;;3.30;;
14139;SDS011;7150;53.514;9.988;2023-11-18T15:18:06;7.30;;;4.13;;
14139;SDS011;7150;53.514;9.988;2023-11-18T15:20:39;6.37;;;3.90;;
14139;SDS011;7150;53.514;9.988;2023-11-18T15:23:07;5.87;;;3.57;;
14139;SDS011;7150;53.514;9.988;2023-11-18T15:25:34;6.23;;;4.03;;
14139;SDS011;7150;53.514;9.988;2023-11-18T15:27:59;5.93;;;3.67;;
14139;SDS011;7150;53.514;9.988;2023-11-18T15:30:25;5.13;;;3.50;;